Time;durP1;ratioP1;P1;durP2;ratioP2;P2;SDS_P1;SDS_P2;PMS_P1;PMS_P2;Temp;Humidity;BMP_temperature;BMP_pressure;BME280_temperature;BME280_humidity;BME280_pressure;Samples;Min_cycle;Max_cycle;Signal;HPM_P1;HPM_P2
2021/07/13 00:00:30;;;;;;;9.53;6.83;;;;;;;20.14;79.16;100246.27;125130;1093;64531;-79
2021/07/13 00:02:59;;;;;;;8.00;7.20;;;;;;;20.14;78.80;100248.15;125197;1093;64291;-80
2021/07/13 00:05:27;;;;;;;9.03;8.13;;;;;;;20.13;79.07;100246.53;124961;1093;64864;-79
2021/07/13 00:07:55;;;;;;;10.57;9.07;;;;;;;20.11;79.21;100237.89;125085;1093;64304;-79
2021/07/13 00:10:24;;;;;;;10.40;9.40;;;;;;;20.11;79.44;100243.27;125030;1093;64317;-80
2021/07/13 00:12:53;;;;;;;13.20;8.65;;;;;;;20.10;79.08;100237.08;125139;1093;64371;-81
2021/07/13 00:15:28;;;;;;;10.57;9.37;;;;;;;20.10;78.93;100238.94;125100;1092;64288;-79
2021/07/13 00:17:56;;;;;;;9.60;7.30;;;;;;;20.09;78.93;100240.02;125062;1093;64387;-79
2021/07/13 00:20:24;;;;;;;7.97;7.00;;;;;;;20.04;78.66;100246.16;125105;1093;64874;-81
2021/07/13 00:22:52;;;;;;;7.60;6.90;;;;;;;20.01;78.69;100253.91;125039;1092;64317;-80
2021/07/13 00:25:19;;;;;;;10.00;7.60;;;;;;;19.95;79.22;100253.84;125411;1093;64378;-80
2021/07/13 00:27:47;;;;;;;9.77;8.70;;;;;;;19.91;79.33;100246.48;124948;1092;64339;-80
2021/07/13 00:30:17;;;;;;;11.37;8.17;;;;;;;19.86;79.58;100238.34;125002;1093;64303;-80
2021/07/13 00:32:45;;;;;;;10.30;9.40;;;;;;;19.80;79.75;100234.77;125052;1093;64343;-80
2021/07/13 00:35:12;;;;;;;9.20;8.30;;;;;;;19.74;79.66;100236.58;125001;1092;65068;-81
2021/07/13 00:37:41;;;;;;;9.23;7.17;;;;;;;19.70;79.98;100242.68;125078;1092;64201;-80
2021/07/13 00:40:10;;;;;;;7.60;6.90;;;;;;;19.63;80.02;100236.63;125087;1093;64316;-79
2021/07/13 00:42:38;;;;;;;9.93;6.97;;;;;;;19.55;80.08;100238.69;125039;1093;64234;-80
2021/07/13 00:45:08;;;;;;;8.87;6.57;;;;;;;19.50;80.23;100230.52;125130;1093;64403;-80
2021/07/13 00:47:35;;;;;;;7.60;6.40;;;;;;;19.45;80.34;100237.72;125206;1093;64262;-79
2021/07/13 00:50:03;;;;;;;10.50;8.15;;;;;;;19.38;80.83;100237.88;125041;1092;64320;-79
2021/07/13 00:52:30;;;;;;;9.57;8.37;;;;;;;19.31;80.65;100237.20;125133;1093;64307;-79
2021/07/13 00:54:58;;;;;;;10.60;8.60;;;;;;;19.25;80.90;100235.48;125042;1092;64259;-79
2021/07/13 00:57:26;;;;;;;11.33;9.10;;;;;;;19.19;81.27;100226.55;125079;1093;64265;-80
2021/07/13 00:59:53;;;;;;;11.13;9.13;;;;;;;19.14;81.59;100227.25;125242;1092;64275;-79
2021/07/13 01:02:20;;;;;;;8.90;7.45;;;;;;;19.09;81.86;100239.81;125040;1092;64375;-79
2021/07/13 01:04:51;;;;;;;12.00;8.05;;;;;;;19.02;81.78;100231.91;125129;1093;64381;-78
2021/07/13 01:07:33;;;;;;;9.63;7.70;;;;;;;18.95;82.09;100228.53;125015;1093;64314;-79
2021/07/13 01:10:03;;;;;;;9.03;7.53;;;;;;;18.90;82.53;100237.33;124990;1092;64314;-80
2021/07/13 01:12:45;;;;;;;9.90;7.83;;;;;;;18.88;82.97;100241.31;125087;1093;64344;-80
2021/07/13 01:15:17;;;;;;;9.97;7.90;;;;;;;18.86;82.86;100246.11;125029;1091;64365;-79
2021/07/13 01:17:54;;;;;;;7.57;6.30;;;;;;;18.83;83.25;100241.20;124996;1092;64243;-79
2021/07/13 01:20:43;;;;;;;10.45;9.20;;;;;;;18.75;83.32;100251.27;124981;1092;64287;-82
2021/07/13 01:23:25;;;;;;;14.00;10.03;;;;;;;18.71;83.32;100252.80;125029;1092;64300;-79
2021/07/13 01:26:18;;;;;;;10.70;9.70;;;;;;;18.69;83.69;100262.16;125042;1093;64382;-79
2021/07/13 01:29:03;;;;;;;10.57;9.47;;;;;;;18.62;83.48;100259.61;125054;1093;64179;-80
2021/07/13 01:31:31;;;;;;;10.27;8.73;;;;;;;18.57;83.69;100259.49;125020;1092;64191;-81
2021/07/13 01:34:07;;;;;;;10.33;7.40;;;;;;;18.51;83.82;100250.53;124897;1093;64390;-79
2021/07/13 01:36:44;;;;;;;9.40;8.50;;;;;;;18.47;83.89;100251.26;125005;1092;64216;-79
2021/07/13 01:39:17;;;;;;;10.80;8.60;;;;;;;18.41;84.26;100250.33;125015;1093;64285;-81
2021/07/13 01:41:47;;;;;;;9.53;8.57;;;;;;;18.38;84.31;100249.98;125005;1092;64284;-80
2021/07/13 01:44:18;;;;;;;9.37;8.47;;;;;;;18.32;84.48;100247.20;125106;1093;64716;-82
2021/07/13 01:46:46;;;;;;;11.77;8.73;;;;;;;18.30;84.90;100237.75;125202;1093;64681;-79
2021/07/13 01:49:19;;;;;;;10.80;8.60;;;;;;;18.28;84.90;100248.72;125021;1093;64182;-81
2021/07/13 01:51:47;;;;;;;8.73;7.93;;;;;;;18.27;85.34;100238.21;125131;1093;64319;-79
2021/07/13 01:54:18;;;;;;;11.20;8.70;;;;;;;18.26;85.49;100241.97;125365;1093;64687;-79
2021/07/13 01:56:47;;;;;;;14.85;10.50;;;;;;;18.22;85.32;100241.61;124928;1092;64291;-79
2021/07/13 01:59:17;;;;;;;10.70;9.70;;;;;;;18.18;85.62;100239.64;125150;1092;64296;-80
2021/07/13 02:01:47;;;;;;;12.05;10.80;;;;;;;18.12;86.02;100239.52;125110;1092;64259;-79
2021/07/13 02:04:16;;;;;;;12.07;10.23;;;;;;;18.09;85.95;100239.19;125144;1093;64261;-80
2021/07/13 02:06:44;;;;;;;14.00;10.10;;;;;;;18.02;85.96;100238.48;125102;1092;65482;-79
2021/07/13 02:09:13;;;;;;;14.70;9.57;;;;;;;17.98;86.62;100234.63;125016;1093;64301;-80
2021/07/13 02:11:45;;;;;;;17.27;9.63;;;;;;;17.96;86.90;100231.37;125085;1093;64872;-80
2021/07/13 02:14:14;;;;;;;12.47;9.60;;;;;;;17.95;87.11;100230.56;125501;1093;64403;-80
2021/07/13 02:16:42;;;;;;;10.97;9.17;;;;;;;17.96;87.17;100223.31;124983;1092;64374;-80
2021/07/13 02:19:10;;;;;;;10.23;8.57;;;;;;;17.95;87.21;100219.02;124972;1092;64349;-80
2021/07/13 02:21:37;;;;;;;13.07;9.73;;;;;;;17.93;87.09;100228.10;125015;1093;64281;-80
2021/07/13 02:24:04;;;;;;;11.77;9.33;;;;;;;17.89;86.99;100218.92;125020;1092;64377;-78
2021/07/13 02:26:51;;;;;;;9.83;8.70;;;;;;;17.88;87.64;100219.95;124942;1093;64342;-80
2021/07/13 02:29:38;;;;;;;12.27;9.50;;;;;;;17.88;87.60;100213.78;124949;1093;64387;-78
2021/07/13 02:32:24;;;;;;;11.77;10.57;;;;;;;17.87;87.37;100212.13;125102;1093;64744;-79
2021/07/13 02:34:53;;;;;;;11.80;10.60;;;;;;;17.83;87.57;100200.23;125191;1091;64323;-80
2021/07/13 02:37:22;;;;;;;15.70;10.57;;;;;;;17.81;87.71;100208.51;125019;1092;64875;-79
2021/07/13 02:39:50;;;;;;;11.93;10.50;;;;;;;17.79;87.57;100202.55;125288;1093;64313;-79
2021/07/13 02:42:18;;;;;;;10.77;9.47;;;;;;;17.77;87.46;100209.21;125016;1093;64324;-80
2021/07/13 02:44:47;;;;;;;10.57;9.53;;;;;;;17.71;87.45;100208.27;124979;1093;64248;-80
2021/07/13 02:47:15;;;;;;;10.40;9.30;;;;;;;17.65;87.66;100193.11;125187;1093;64380;-80
2021/07/13 02:49:48;;;;;;;15.70;9.40;;;;;;;17.62;87.91;100189.03;125013;1093;64320;-81
2021/07/13 02:52:20;;;;;;;13.00;9.50;;;;;;;17.59;88.03;100186.00;125089;1093;64314;-81
2021/07/13 02:54:50;;;;;;;9.43;8.37;;;;;;;17.51;88.14;100193.35;125127;1093;64345;-79
2021/07/13 02:57:17;;;;;;;9.60;8.60;;;;;;;17.47;88.58;100184.14;125447;1092;64192;-80
2021/07/13 02:59:46;;;;;;;9.77;8.53;;;;;;;17.47;88.75;100181.45;125241;1093;64320;-80
2021/07/13 03:02:14;;;;;;;9.17;8.27;;;;;;;17.46;88.83;100193.22;125132;1093;64329;-80
2021/07/13 03:04:43;;;;;;;11.00;8.63;;;;;;;17.49;89.18;100189.28;125778;1093;64259;-79
2021/07/13 03:07:10;;;;;;;13.90;10.53;;;;;;;17.51;89.20;100193.35;125045;1092;64326;-79
2021/07/13 03:09:44;;;;;;;16.00;10.60;;;;;;;17.52;89.17;100189.61;125097;1093;64344;-79
2021/07/13 03:12:11;;;;;;;14.50;12.00;;;;;;;17.51;89.05;100187.15;125232;1093;64352;-81
2021/07/13 03:14:41;;;;;;;13.33;9.90;;;;;;;17.50;88.84;100186.34;124925;1092;64351;-79
2021/07/13 03:17:10;;;;;;;11.20;9.50;;;;;;;17.48;88.73;100191.12;125018;1093;64287;-80
2021/07/13 03:19:38;;;;;;;13.97;9.77;;;;;;;17.46;88.84;100195.89;125175;1093;64301;-82
2021/07/13 03:22:09;;;;;;;13.07;10.07;;;;;;;17.44;89.04;100195.31;125063;1092;64358;-79
2021/07/13 03:24:39;;;;;;;11.77;8.60;;;;;;;17.44;89.24;100197.19;125675;1093;64630;-80
2021/07/13 03:27:08;;;;;;;10.13;9.00;;;;;;;17.44;89.34;100195.31;125925;1093;64182;-80
2021/07/13 03:29:37;;;;;;;9.37;8.37;;;;;;;17.45;89.12;100199.64;125256;1092;65818;-82
2021/07/13 03:32:05;;;;;;;10.55;9.45;;;;;;;17.46;88.99;100200.45;125730;1092;64317;-80
2021/07/13 03:34:33;;;;;;;11.47;8.53;;;;;;;17.48;89.16;100203.72;124909;1092;64448;-81
2021/07/13 03:37:01;;;;;;;11.07;10.00;;;;;;;17.48;89.09;100193.80;124980;1093;64310;-80
2021/07/13 03:39:29;;;;;;;10.67;9.57;;;;;;;17.47;88.84;100202.91;124858;1093;64313;-78
2021/07/13 03:41:57;;;;;;;12.93;11.33;;;;;;;17.45;88.73;100202.33;124854;1093;64397;-79
2021/07/13 03:44:24;;;;;;;11.95;10.75;;;;;;;17.45;89.32;100198.84;124825;1092;64513;-78
2021/07/13 03:46:52;;;;;;;13.13;9.60;;;;;;;17.44;88.75;100197.19;124920;1093;64371;-79
2021/07/13 03:49:24;;;;;;;19.55;10.25;;;;;;;17.43;89.05;100195.56;124868;1092;64310;-79
2021/07/13 03:51:51;;;;;;;10.23;8.53;;;;;;;17.42;88.90;100194.73;125121;1092;64387;-79
2021/07/13 03:54:21;;;;;;;10.10;8.77;;;;;;;17.44;89.41;100200.67;125080;1092;64325;-79
2021/07/13 03:56:50;;;;;;;15.00;9.53;;;;;;;17.47;89.41;100200.23;125320;1093;64263;-80
2021/07/13 03:59:18;;;;;;;11.53;9.07;;;;;;;17.51;89.49;100203.23;124862;1093;64387;-80
2021/07/13 04:01:45;;;;;;;10.50;8.53;;;;;;;17.58;89.58;100201.28;124963;1093;64217;-80
2021/07/13 04:04:13;;;;;;;10.63;9.53;;;;;;;17.61;89.22;100206.16;125334;1092;64339;-81
2021/07/13 04:06:40;;;;;;;11.63;10.07;;;;;;;17.67;89.40;100207.11;124923;1092;64304;-82
2021/07/13 04:09:08;;;;;;;19.73;10.60;;;;;;;17.70;88.93;100203.94;124943;1093;64320;-80
2021/07/13 04:11:36;;;;;;;10.63;9.17;;;;;;;17.75;88.89;100208.63;124865;1093;64390;-79
2021/07/13 04:14:05;;;;;;;14.40;9.67;;;;;;;17.80;88.74;100206.05;124907;1093;64275;-80
2021/07/13 04:16:34;;;;;;;8.07;7.27;;;;;;;17.82;88.68;100203.95;124963;1092;64323;-81
2021/07/13 04:19:03;;;;;;;9.23;7.67;;;;;;;17.85;88.64;100207.02;124836;1093;64857;-79
2021/07/13 04:21:30;;;;;;;9.43;8.07;;;;;;;17.93;88.72;100206.63;124925;1093;64226;-80
2021/07/13 04:23:57;;;;;;;7.30;6.53;;;;;;;17.99;88.44;100210.25;124831;1093;64352;-79
2021/07/13 04:26:24;;;;;;;9.97;7.00;;;;;;;18.08;88.52;100214.20;124990;1092;64284;-79
2021/07/13 04:28:51;;;;;;;9.93;8.40;;;;;;;18.15;88.20;100219.46;124878;1092;64801;-80
2021/07/13 04:31:18;;;;;;;12.30;10.33;;;;;;;18.22;88.19;100212.08;124823;1092;64357;-81
2021/07/13 04:33:47;;;;;;;11.17;8.63;;;;;;;18.28;87.74;100219.19;124870;1092;64392;-80
2021/07/13 04:36:14;;;;;;;14.40;10.55;;;;;;;18.35;87.90;100219.05;124849;1093;64362;-81
2021/07/13 04:38:41;;;;;;;9.90;8.97;;;;;;;18.43;87.49;100209.81;124884;1092;64275;-80
2021/07/13 04:41:09;;;;;;;8.77;7.70;;;;;;;18.53;87.33;100204.61;124847;1093;64650;-80
2021/07/13 04:43:36;;;;;;;10.73;7.40;;;;;;;18.65;86.90;100204.58;125111;1092;64380;-80
2021/07/13 04:46:03;;;;;;;8.67;6.97;;;;;;;18.75;86.82;100202.89;125142;1092;64651;-80
2021/07/13 04:48:30;;;;;;;7.43;6.43;;;;;;;18.88;86.29;100198.31;124831;1093;64425;-80
2021/07/13 04:50:57;;;;;;;8.20;6.73;;;;;;;19.01;85.86;100205.25;124840;1093;64311;-80
2021/07/13 04:53:24;;;;;;;9.90;6.10;;;;;;;19.07;85.48;100207.78;124908;1093;64264;-80
2021/07/13 04:55:51;;;;;;;10.10;7.80;;;;;;;19.15;85.74;100210.08;124915;1092;65259;-80
2021/07/13 04:58:18;;;;;;;9.60;7.70;;;;;;;19.28;85.24;100213.51;124820;1093;64284;-80
2021/07/13 05:00:45;;;;;;;7.77;6.97;;;;;;;19.42;85.13;100212.09;124878;1093;64406;-80
2021/07/13 05:03:12;;;;;;;8.77;6.47;;;;;;;19.58;85.01;100217.73;124830;1092;64394;-79
2021/07/13 05:05:41;;;;;;;8.10;5.37;;;;;;;19.73;84.37;100213.41;124895;1093;64285;-79
2021/07/13 05:08:08;;;;;;;9.00;5.83;;;;;;;19.85;83.96;100199.86;124916;1093;64310;-80
2021/07/13 05:10:35;;;;;;;8.37;4.47;;;;;;;19.95;82.71;100199.16;124871;1093;64246;-79
2021/07/13 05:13:03;;;;;;;7.23;4.93;;;;;;;20.01;82.52;100197.36;124952;1092;64211;-80
2021/07/13 05:15:30;;;;;;;14.37;6.73;;;;;;;20.09;82.00;100191.55;124940;1093;64766;-80
2021/07/13 05:17:57;;;;;;;11.50;7.60;;;;;;;20.22;83.12;100195.74;125060;1093;64320;-77
2021/07/13 05:20:24;;;;;;;8.50;7.03;;;;;;;20.34;81.89;100197.23;124725;1093;64304;-72
2021/07/13 05:22:58;;;;;;;10.83;6.00;;;;;;;20.48;82.16;100191.45;124594;1093;64674;-72
2021/07/13 05:25:29;;;;;;;10.40;5.40;;;;;;;20.56;81.68;100194.50;124696;1093;64368;-71
2021/07/13 05:27:56;;;;;;;11.57;5.53;;;;;;;20.68;81.56;100191.70;124560;1092;64307;-70
2021/07/13 05:30:24;;;;;;;8.03;4.87;;;;;;;20.77;81.19;100200.14;124505;1093;64355;-70
2021/07/13 05:32:52;;;;;;;8.30;6.80;;;;;;;20.84;81.32;100195.34;124600;1093;64840;-70
2021/07/13 05:35:20;;;;;;;10.87;8.47;;;;;;;20.91;80.16;100200.53;124811;1093;64307;-70
2021/07/13 05:37:48;;;;;;;10.83;6.60;;;;;;;20.97;80.34;100192.26;125004;1093;64262;-70
2021/07/13 05:40:16;;;;;;;6.40;5.40;;;;;;;21.02;79.76;100194.18;124670;1093;64208;-70
2021/07/13 05:42:43;;;;;;;7.47;5.53;;;;;;;21.07;79.81;100199.61;124735;1093;64339;-71
2021/07/13 05:45:11;;;;;;;6.57;4.70;;;;;;;21.12;78.87;100202.36;124673;1093;64304;-70
2021/07/13 05:47:38;;;;;;;6.50;5.13;;;;;;;21.18;78.91;100201.30;124680;1093;64310;-70
2021/07/13 05:50:07;;;;;;;5.87;3.80;;;;;;;21.29;78.49;100196.00;124664;1093;64284;-71
2021/07/13 05:52:35;;;;;;;7.63;4.13;;;;;;;21.42;77.90;100201.01;124837;1093;64348;-70
2021/07/13 05:55:04;;;;;;;5.30;4.70;;;;;;;21.50;77.79;100202.39;124711;1093;64285;-70
2021/07/13 05:57:31;;;;;;;4.83;4.30;;;;;;;21.56;77.05;100198.66;124982;1093;64300;-70
2021/07/13 05:59:59;;;;;;;8.27;4.80;;;;;;;21.62;76.61;100196.81;124683;1093;64338;-70
2021/07/13 06:02:27;;;;;;;7.73;4.90;;;;;;;21.67;76.29;100203.03;124768;1093;64386;-71
2021/07/13 06:04:54;;;;;;;6.77;3.93;;;;;;;21.75;75.80;100201.74;124636;1093;64374;-69
2021/07/13 06:07:21;;;;;;;4.43;3.67;;;;;;;21.80;76.04;100193.66;124740;1093;64301;-69
2021/07/13 06:09:48;;;;;;;6.73;3.87;;;;;;;21.87;75.84;100188.86;124641;1093;64335;-71
2021/07/13 06:12:15;;;;;;;7.73;5.17;;;;;;;21.96;75.23;100184.57;124652;1093;64291;-71
2021/07/13 06:14:42;;;;;;;12.30;3.80;;;;;;;22.06;74.78;100182.98;124643;1093;64277;-70
2021/07/13 06:17:10;;;;;;;7.50;4.40;;;;;;;22.11;73.98;100172.22;124715;1093;64291;-72
2021/07/13 06:19:37;;;;;;;6.80;4.00;;;;;;;22.16;73.46;100183.83;124686;1093;64390;-70
2021/07/13 06:22:05;;;;;;;6.00;3.93;;;;;;;22.21;72.82;100183.06;124730;1093;64291;-71
2021/07/13 06:24:32;;;;;;;7.80;6.27;;;;;;;22.29;73.26;100182.59;124703;1093;64757;-74
2021/07/13 06:26:59;;;;;;;9.70;3.70;;;;;;;22.43;73.44;100190.19;124679;1093;64293;-71
2021/07/13 06:29:26;;;;;;;14.17;9.53;;;;;;;22.54;72.70;100186.42;124675;1093;64364;-69
2021/07/13 06:31:53;;;;;;;37.73;29.50;;;;;;;22.64;71.59;100183.74;124667;1093;64484;-70
2021/07/13 06:34:21;;;;;;;7.43;3.60;;;;;;;22.74;70.96;100177.55;125661;1093;64310;-71
2021/07/13 06:36:53;;;;;;;5.83;3.00;;;;;;;22.85;70.78;100183.78;124787;1093;64307;-71
2021/07/13 06:39:20;;;;;;;4.37;2.83;;;;;;;22.92;69.79;100187.02;124699;1093;64289;-71
2021/07/13 06:41:47;;;;;;;4.87;2.93;;;;;;;22.95;69.53;100190.01;124736;1093;64323;-72
2021/07/13 06:44:15;;;;;;;6.80;2.83;;;;;;;23.02;69.28;100189.77;124738;1093;64288;-72
2021/07/13 06:46:42;;;;;;;5.77;3.80;;;;;;;23.04;69.09;100187.61;124631;1093;65462;-71
2021/07/13 06:49:09;;;;;;;7.70;3.20;;;;;;;23.10;68.81;100194.64;124630;1093;64291;-72
2021/07/13 06:51:36;;;;;;;4.97;3.37;;;;;;;23.15;68.67;100191.92;124681;1093;64339;-72
2021/07/13 06:54:03;;;;;;;6.07;3.23;;;;;;;23.22;68.88;100193.55;124675;1093;64375;-71
2021/07/13 06:56:30;;;;;;;11.30;3.90;;;;;;;23.26;68.74;100191.92;124693;1093;64342;-70
2021/07/13 06:58:57;;;;;;;4.10;3.03;;;;;;;23.31;68.88;100197.33;124716;1093;64386;-70
2021/07/13 07:01:24;;;;;;;9.00;3.73;;;;;;;23.33;68.77;100189.74;124656;1093;64296;-71
2021/07/13 07:03:52;;;;;;;8.27;3.43;;;;;;;23.36;69.02;100189.22;124683;1093;64399;-71
2021/07/13 07:06:19;;;;;;;6.87;3.23;;;;;;;23.37;67.99;100197.05;124632;1093;64373;-71
2021/07/13 07:08:46;;;;;;;8.30;4.10;;;;;;;23.42;68.46;100207.08;124604;1092;64893;-71
2021/07/13 07:11:13;;;;;;;6.60;3.30;;;;;;;23.42;66.70;100198.95;124618;1093;64424;-71
2021/07/13 07:13:40;;;;;;;8.40;3.47;;;;;;;23.43;67.10;100202.47;124702;1093;64304;-71
2021/07/13 07:16:08;;;;;;;8.53;4.40;;;;;;;23.46;68.52;100200.03;124591;1093;64393;-71
2021/07/13 07:18:35;;;;;;;10.87;4.37;;;;;;;23.60;68.30;100200.27;124727;1092;64243;-70
2021/07/13 07:21:03;;;;;;;8.03;3.93;;;;;;;23.72;67.74;100203.50;124627;1093;64332;-71
2021/07/13 07:23:30;;;;;;;6.17;3.93;;;;;;;23.81;68.14;100203.78;124670;1093;64288;-70
2021/07/13 07:25:57;;;;;;;5.43;2.93;;;;;;;23.94;67.37;100202.38;124630;1092;65433;-70
2021/07/13 07:28:25;;;;;;;9.67;4.60;;;;;;;24.12;67.96;100203.66;124822;1093;64402;-71
2021/07/13 07:30:52;;;;;;;5.23;3.57;;;;;;;24.36;67.19;100199.22;124674;1093;64763;-71
2021/07/13 07:33:19;;;;;;;8.07;3.67;;;;;;;24.66;65.80;100200.17;124790;1093;64307;-73
2021/07/13 07:35:46;;;;;;;7.07;3.40;;;;;;;24.92;63.97;100199.99;124741;1093;64291;-71
2021/07/13 07:38:13;;;;;;;6.17;3.10;;;;;;;25.19;63.21;100191.37;124663;1093;64287;-70
2021/07/13 07:40:40;;;;;;;9.67;4.43;;;;;;;25.49;62.95;100201.16;124743;1093;64285;-71
2021/07/13 07:43:07;;;;;;;11.57;4.60;;;;;;;25.69;61.85;100194.70;124680;1093;64288;-72
2021/07/13 07:45:35;;;;;;;9.53;5.57;;;;;;;25.76;60.32;100197.09;124732;1092;64330;-71
2021/07/13 07:48:03;;;;;;;4.53;2.40;;;;;;;25.80;59.96;100198.95;124635;1093;64310;-71
2021/07/13 07:50:31;;;;;;;11.73;5.53;;;;;;;25.88;60.10;100189.33;124665;1093;64291;-72
2021/07/13 07:52:58;;;;;;;7.10;2.27;;;;;;;25.94;59.38;100196.36;124638;1093;64428;-72
2021/07/13 07:55:28;;;;;;;3.00;2.00;;;;;;;25.97;59.29;100203.95;124667;1093;64409;-73
2021/07/13 07:57:55;;;;;;;12.50;7.05;;;;;;;25.98;59.41;100202.83;124636;1093;64410;-72
2021/07/13 08:00:22;;;;;;;5.63;2.43;;;;;;;25.94;59.32;100209.94;124624;1093;65484;-71
2021/07/13 08:02:50;;;;;;;4.50;2.13;;;;;;;26.01;59.10;100206.88;124687;1093;64349;-72
2021/07/13 08:05:18;;;;;;;4.23;3.20;;;;;;;25.98;58.79;100200.11;124774;1093;64380;-71
2021/07/13 08:07:47;;;;;;;5.03;2.67;;;;;;;25.97;59.46;100201.23;124623;1093;64386;-71
2021/07/13 08:10:15;;;;;;;3.47;2.20;;;;;;;25.97;59.51;100203.95;124744;1093;64639;-71
2021/07/13 08:12:43;;;;;;;5.60;2.80;;;;;;;25.99;59.31;100188.16;124650;1092;64233;-71
2021/07/13 08:15:12;;;;;;;4.93;2.57;;;;;;;26.04;59.56;100195.44;124721;1093;64271;-71
2021/07/13 08:17:41;;;;;;;4.07;2.50;;;;;;;26.16;59.45;100193.11;124846;1093;64314;-72
2021/07/13 08:20:10;;;;;;;4.97;3.00;;;;;;;26.29;59.15;100194.31;124793;1093;64317;-72
2021/07/13 08:22:38;;;;;;;3.97;2.67;;;;;;;26.39;58.43;100188.70;124674;1092;64317;-70
2021/07/13 08:25:05;;;;;;;5.07;2.53;;;;;;;26.43;58.37;100181.58;124624;1093;64288;-71
2021/07/13 08:27:32;;;;;;;5.00;2.37;;;;;;;26.57;57.93;100184.42;124623;1093;64314;-71
2021/07/13 08:29:59;;;;;;;6.37;2.13;;;;;;;26.61;57.58;100181.93;124582;1093;64415;-70
2021/07/13 08:32:27;;;;;;;3.43;2.03;;;;;;;26.67;58.39;100175.31;124628;1093;64431;-72
2021/07/13 08:34:53;;;;;;;4.87;2.77;;;;;;;26.81;57.08;100176.16;124604;1093;64310;-71
2021/07/13 08:37:21;;;;;;;6.23;3.20;;;;;;;27.03;57.06;100172.00;124632;1093;64397;-71
2021/07/13 08:39:49;;;;;;;6.67;2.53;;;;;;;27.31;55.85;100166.65;124647;1092;64330;-71
2021/07/13 08:42:16;;;;;;;9.80;5.20;;;;;;;27.54;55.85;100165.70;124673;1093;64648;-72
2021/07/13 08:44:44;;;;;;;5.60;2.40;;;;;;;27.65;54.01;100160.86;124646;1093;64492;-72
2021/07/13 08:47:15;;;;;;;8.10;2.50;;;;;;;27.69;54.16;100159.14;124695;1093;64352;-72
2021/07/13 08:49:48;;;;;;;5.87;3.70;;;;;;;27.80;53.50;100160.55;124684;1093;64264;-71
2021/07/13 08:52:15;;;;;;;7.87;4.67;;;;;;;28.02;53.38;100159.84;124772;1093;64287;-71
2021/07/13 08:54:43;;;;;;;9.30;5.10;;;;;;;28.36;52.81;100153.11;124690;1093;64233;-72
2021/07/13 08:57:11;;;;;;;3.47;2.13;;;;;;;28.62;52.03;100160.73;124876;1093;64364;-72
2021/07/13 08:59:39;;;;;;;3.10;2.07;;;;;;;28.69;50.15;100161.13;124721;1093;64374;-72
2021/07/13 09:02:06;;;;;;;6.00;2.83;;;;;;;28.67;49.66;100163.36;124607;1092;64231;-71
2021/07/13 09:04:35;;;;;;;3.40;2.43;;;;;;;28.66;49.20;100167.98;124618;1093;64387;-73
2021/07/13 09:07:07;;;;;;;2.60;1.67;;;;;;;28.74;49.03;100162.92;124984;1093;65428;-72
2021/07/13 09:09:36;;;;;;;5.63;3.57;;;;;;;28.82;49.45;100159.45;124960;1093;64381;-71
2021/07/13 09:12:14;;;;;;;5.67;3.13;;;;;;;28.94;48.54;100162.41;124920;1093;64937;-72
2021/07/13 09:15:05;;;;;;;2.83;1.70;;;;;;;29.02;47.94;100169.05;124815;1093;64310;-72
2021/07/13 09:17:43;;;;;;;3.20;2.00;;;;;;;29.04;47.80;100177.74;124678;1093;64314;-72
2021/07/13 09:20:22;;;;;;;3.55;2.55;;;;;;;29.05;47.20;100179.34;124916;1093;64256;-71
2021/07/13 09:23:06;;;;;;;3.30;2.37;;;;;;;29.04;47.85;100177.74;124677;1092;64314;-72
2021/07/13 09:25:34;;;;;;;2.43;1.97;;;;;;;29.10;47.33;100175.73;124793;1093;64874;-72
2021/07/13 09:28:13;;;;;;;2.87;2.47;;;;;;;29.11;47.52;100177.33;124752;1093;64311;-73
2021/07/13 09:30:46;;;;;;;3.00;2.10;;;;;;;29.11;47.00;100182.79;124971;1093;64258;-73
2021/07/13 09:33:19;;;;;;;2.70;2.13;;;;;;;29.05;45.08;100177.44;124680;1093;64322;-73
2021/07/13 09:36:08;;;;;;;2.83;2.33;;;;;;;29.04;46.01;100170.34;124847;1093;64284;-73
2021/07/13 09:38:41;;;;;;;3.53;2.13;;;;;;;29.11;46.39;100166.41;124620;1093;64406;-72
2021/07/13 09:41:19;;;;;;;2.30;1.80;;;;;;;29.14;46.28;100172.05;124732;1093;64330;-72
2021/07/13 09:43:49;;;;;;;3.98;2.20;;;;;;;29.02;44.69;100174.52;124982;1093;64278;-73
2021/07/13 09:46:33;;;;;;;3.77;2.60;;;;;;;28.94;45.77;100176.06;124746;1093;64351;-72
2021/07/13 09:49:20;;;;;;;;;;;;;;;29.11;47.24;100171.86;124672;1093;64317;-73
2021/07/13 09:52:04;;;;;;;98.97;81.50;;;;;;;29.27;46.78;100165.70;124889;1093;64307;-73
2021/07/13 09:54:41;;;;;;;41.60;33.75;;;;;;;29.40;45.85;100168.66;124643;1093;64266;-73
2021/07/13 09:57:11;;;;;;;5.07;2.57;;;;;;;29.44;45.04;100164.17;124709;1093;64297;-72
2021/07/13 09:59:39;;;;;;;12.33;10.13;;;;;;;29.51;45.30;100164.52;124751;1093;64369;-73
2021/07/13 10:02:08;;;;;;;17.53;13.37;;;;;;;29.61;45.36;100166.17;124745;1093;64409;-73
2021/07/13 10:04:38;;;;;;;6.87;4.43;;;;;;;29.77;45.90;100172.04;124924;1093;64384;-73
2021/07/13 10:07:27;;;;;;;33.23;26.10;;;;;;;29.87;43.17;100171.75;124829;1093;64342;-73
2021/07/13 10:10:03;;;;;;;2.80;2.40;;;;;;;29.89;44.08;100172.23;124814;1093;64300;-73
2021/07/13 10:12:31;;;;;;;3.70;2.77;;;;;;;29.78;43.34;100160.80;124755;1093;64252;-72
2021/07/13 10:14:59;;;;;;;8.27;3.13;;;;;;;29.52;44.83;100166.14;124697;1092;64387;-71
2021/07/13 10:17:32;;;;;;;3.77;3.07;;;;;;;29.40;44.74;100163.19;124831;1093;64355;-73
2021/07/13 10:20:02;;;;;;;3.90;3.00;;;;;;;29.34;45.43;100159.78;124783;1093;64286;-72
2021/07/13 10:22:31;;;;;;;3.43;2.80;;;;;;;29.33;45.56;100160.08;124681;1093;64780;-73
2021/07/13 10:25:00;;;;;;;4.60;3.23;;;;;;;29.39;45.35;100164.30;124708;1093;64291;-73
2021/07/13 10:27:33;;;;;;;3.10;2.70;;;;;;;29.46;45.54;100167.41;124687;1093;64864;-73
2021/07/13 10:30:08;;;;;;;5.25;4.05;;;;;;;29.49;45.75;100155.83;124872;1093;64326;-73
2021/07/13 10:32:38;;;;;;;3.97;3.20;;;;;;;29.49;44.32;100155.83;124680;1093;65379;-73
2021/07/13 10:35:23;;;;;;;3.53;2.57;;;;;;;29.60;44.91;100161.81;124714;1093;64314;-73
2021/07/13 10:37:57;;;;;;;6.60;4.93;;;;;;;29.68;42.90;100152.84;124686;1092;64345;-73
2021/07/13 10:40:24;;;;;;;3.77;3.07;;;;;;;29.73;43.89;100155.48;124722;1093;64400;-72
2021/07/13 10:43:02;;;;;;;3.77;2.60;;;;;;;29.77;43.66;100155.63;124696;1093;64281;-72
2021/07/13 10:45:44;;;;;;;2.90;2.37;;;;;;;29.78;43.88;100152.59;124676;1093;64878;-74
2021/07/13 10:48:20;;;;;;;7.73;4.57;;;;;;;29.84;44.70;100161.46;124678;1093;64304;-73
2021/07/13 10:50:57;;;;;;;4.10;3.20;;;;;;;29.85;44.87;100168.53;124820;1092;64346;-72
2021/07/13 10:53:42;;;;;;;10.90;6.73;;;;;;;29.94;44.28;100161.14;124735;1093;64432;-72
2021/07/13 10:56:15;;;;;;;10.67;7.80;;;;;;;30.08;43.58;100163.77;124738;1093;64383;-73
2021/07/13 10:58:47;;;;;;;5.50;3.70;;;;;;;30.30;43.80;100162.05;124685;1093;64288;-74
2021/07/13 11:01:21;;;;;;;10.83;7.93;;;;;;;30.40;42.87;100168.01;124804;1091;64223;-72
2021/07/13 11:03:50;;;;;;;11.20;7.57;;;;;;;30.40;42.07;100170.74;124859;1093;64290;-73
2021/07/13 11:06:19;;;;;;;10.30;7.13;;;;;;;30.56;42.58;100159.31;124661;1093;64307;-73
2021/07/13 11:08:49;;;;;;;4.47;3.90;;;;;;;30.80;41.36;100159.63;124738;1093;64311;-73
2021/07/13 11:11:22;;;;;;;3.73;3.00;;;;;;;31.10;41.95;100162.50;124689;1092;64219;-74
2021/07/13 11:13:54;;;;;;;4.20;3.80;;;;;;;31.50;41.53;100162.24;124691;1093;64313;-72
2021/07/13 11:16:24;;;;;;;3.85;3.50;;;;;;;31.76;40.62;100164.05;124677;1093;64298;-73
2021/07/13 11:18:51;;;;;;;3.50;3.20;;;;;;;31.85;38.96;100157.38;124703;1093;64650;-73
2021/07/13 11:21:21;;;;;;;4.90;3.50;;;;;;;31.98;37.77;100163.78;124667;1093;64285;-73
2021/07/13 11:23:54;;;;;;;3.70;3.40;;;;;;;32.15;38.88;100164.81;124778;1093;64310;-73
2021/07/13 11:26:23;;;;;;;5.23;3.17;;;;;;;32.16;38.17;100164.48;124660;1093;64847;-73